Terminal Aerodrome Forecast
Issued by NWS Mt. Holly, NJ

Home | Current Version | Previous Version | Text Only | Print | Product List | Glossary On
Versions: 1 2 3 4 5 6 7 8 9 10 11 12 13 14 15 16 17 18 19
000
FTUS41 KPHI 290617 AAA
TAFILG
TAF AMD
KILG 290617Z 2906/3006 08011G20KT 6SM -SHRA BR OVC010
      TEMPO 2906/2910 3SM -SHRA BR OVC007
     FM291000 07010G20KT 6SM -SHRA BKN006 OVC015
     FM291600 08012G24KT P6SM OVC010
     FM300000 07015G27KT 3SM -SHRA OVC008=

USA.gov is the U.S. government's official web portal to all federal, state and local government web resources and services.